createdAt,value
2018-10-19T00:00:14.133Z,43.40
2018-10-19T00:02:41.613Z,45.30
2018-10-19T00:05:08.961Z,36.93
2018-10-19T00:07:36.217Z,40.47
2018-10-19T00:10:03.909Z,41.40
2018-10-19T00:12:31.249Z,38.47
2018-10-19T00:14:58.556Z,40.73
2018-10-19T00:17:25.890Z,43.47
2018-10-19T00:19:53.337Z,38.73
2018-10-19T00:22:20.625Z,40.97
2018-10-19T00:24:47.944Z,39.23
2018-10-19T00:27:15.300Z,43.13
2018-10-19T00:29:42.935Z,40.27
2018-10-19T00:32:10.273Z,41.30
2018-10-19T00:34:37.560Z,37.47
2018-10-19T00:37:05.057Z,37.50
2018-10-19T00:39:32.358Z,34.23
2018-10-19T00:41:59.640Z,40.33
2018-10-19T00:44:27.016Z,37.00
2018-10-19T00:46:54.387Z,37.13
2018-10-19T00:49:21.634Z,37.67
2018-10-19T00:51:49.041Z,34.20
2018-10-19T00:54:16.308Z,37.97
2018-10-19T00:56:43.600Z,39.50
2018-10-19T00:59:10.964Z,40.13
2018-10-19T01:01:38.224Z,39.93
2018-10-19T01:04:05.913Z,39.60
2018-10-19T01:06:33.212Z,34.20
2018-10-19T01:09:00.626Z,34.90
2018-10-19T01:11:27.876Z,35.00
2018-10-19T01:13:55.099Z,38.03
2018-10-19T01:16:22.338Z,33.40
2018-10-19T01:18:49.564Z,36.13
2018-10-19T01:21:16.825Z,37.13
2018-10-19T01:23:44.108Z,33.03
2018-10-19T01:26:11.330Z,42.90
2018-10-19T01:28:38.557Z,42.03
2018-10-19T01:31:05.825Z,39.47
2018-10-19T01:33:33.077Z,36.03
2018-10-19T01:36:00.473Z,36.90
2018-10-19T01:38:27.718Z,34.23
2018-10-19T01:40:55.141Z,32.77
2018-10-19T01:43:22.341Z,40.00
2018-10-19T01:45:55.504Z,33.40
2018-10-19T01:48:22.753Z,35.83
2018-10-19T01:50:49.968Z,42.33
2018-10-19T01:53:17.436Z,35.63
2018-10-19T01:55:44.915Z,35.97
2018-10-19T01:58:12.154Z,35.27
2018-10-19T02:00:39.401Z,40.20
2018-10-19T02:03:06.688Z,30.87
2018-10-19T02:05:34.013Z,36.43
2018-10-19T02:08:01.273Z,35.27
2018-10-19T02:10:28.649Z,32.73
2018-10-19T02:12:55.923Z,39.17
2018-10-19T02:15:23.212Z,36.60
2018-10-19T02:17:50.452Z,33.77
2018-10-19T02:20:17.685Z,34.50
2018-10-19T02:22:44.942Z,36.20
2018-10-19T02:25:12.214Z,37.83
2018-10-19T02:27:39.514Z,41.03
2018-10-19T02:30:07.108Z,36.40
2018-10-19T02:32:34.464Z,37.43
2018-10-19T02:35:01.838Z,35.10
2018-10-19T02:37:29.146Z,34.13
2018-10-19T02:39:56.464Z,34.27
2018-10-19T02:42:23.764Z,34.57
2018-10-19T02:44:51.061Z,36.70
2018-10-19T02:47:18.353Z,32.40
2018-10-19T02:49:45.665Z,35.87
2018-10-19T02:52:12.977Z,32.30
2018-10-19T02:54:40.265Z,34.30
2018-10-19T02:57:07.661Z,32.77
2018-10-19T02:59:34.850Z,36.93
2018-10-19T03:02:02.145Z,34.80
2018-10-19T03:04:29.461Z,34.73
2018-10-19T03:06:56.752Z,34.77
2018-10-19T03:09:24.066Z,34.83
2018-10-19T03:11:51.390Z,35.53
2018-10-19T03:14:18.651Z,36.80
2018-10-19T03:16:46.279Z,37.10
2018-10-19T03:19:13.525Z,29.73
2018-10-19T03:21:40.801Z,38.50
2018-10-19T03:24:08.049Z,30.40
2018-10-19T03:26:35.334Z,35.53
2018-10-19T03:29:02.652Z,33.40
2018-10-19T03:31:29.846Z,38.33
2018-10-19T03:33:57.132Z,40.07
2018-10-19T03:36:24.401Z,41.57
2018-10-19T03:38:51.649Z,40.00
2018-10-19T03:41:18.902Z,44.67
2018-10-19T03:43:46.132Z,39.67
2018-10-19T03:46:13.377Z,47.10
2018-10-19T03:48:40.986Z,38.57
2018-10-19T03:51:08.292Z,47.40
2018-10-19T03:53:35.444Z,44.40
2018-10-19T03:56:02.700Z,59.33
2018-10-19T03:58:29.965Z,57.33
2018-10-19T04:00:57.220Z,52.97
2018-10-19T04:03:24.475Z,50.50
2018-10-19T04:05:51.663Z,52.20
2018-10-19T04:08:18.895Z,44.20
2018-10-19T04:10:46.214Z,41.00
2018-10-19T04:13:13.534Z,36.40
2018-10-19T04:15:40.809Z,39.53
2018-10-19T04:18:08.125Z,40.60
2018-10-19T04:20:35.417Z,40.83
2018-10-19T04:23:06.015Z,38.03
2018-10-19T04:25:33.340Z,37.77
2018-10-19T04:28:00.721Z,38.07
2018-10-19T04:30:28.009Z,35.10
2018-10-19T04:32:55.351Z,42.83
2018-10-19T04:35:22.621Z,36.43
2018-10-19T04:37:49.929Z,41.10
2018-10-19T04:40:19.366Z,41.13
2018-10-19T04:42:46.793Z,45.60
2018-10-19T04:45:14.160Z,40.40
2018-10-19T04:47:41.636Z,38.70
2018-10-19T04:50:09.175Z,34.13
2018-10-19T04:52:36.453Z,49.27
2018-10-19T04:55:04.117Z,49.25
2018-10-19T04:57:31.445Z,47.67
2018-10-19T04:59:58.739Z,42.43
2018-10-19T05:02:26.110Z,42.63
2018-10-19T05:04:53.411Z,38.70
2018-10-19T05:07:20.702Z,37.00
2018-10-19T05:09:47.985Z,38.83
2018-10-19T05:12:15.298Z,40.70
2018-10-19T05:14:42.598Z,42.00
2018-10-19T05:17:09.944Z,45.63
2018-10-19T05:19:37.272Z,47.80
2018-10-19T05:22:05.414Z,46.70
2018-10-19T05:24:32.729Z,41.73
2018-10-19T05:27:00.020Z,39.17
2018-10-19T05:29:27.309Z,39.63
2018-10-19T05:31:54.627Z,39.80
2018-10-19T05:34:21.897Z,39.90
2018-10-19T05:36:49.205Z,36.37
2018-10-19T05:39:16.572Z,39.27
2018-10-19T05:41:43.893Z,41.60
2018-10-19T05:44:11.217Z,40.55
2018-10-19T05:46:38.497Z,43.70
2018-10-19T05:49:05.818Z,42.43
2018-10-19T05:51:33.122Z,40.45
2018-10-19T05:54:00.436Z,40.03
2018-10-19T05:56:27.709Z,36.77
2018-10-19T05:58:55.037Z,37.67
2018-10-19T06:01:22.313Z,45.60
2018-10-19T06:03:49.632Z,35.07
2018-10-19T06:06:16.941Z,41.40
2018-10-19T06:08:44.256Z,38.97
2018-10-19T06:11:11.548Z,41.10
2018-10-19T06:13:38.835Z,51.50
2018-10-19T06:16:06.053Z,48.60
2018-10-19T06:18:33.280Z,49.60
2018-10-19T06:21:00.559Z,43.43
2018-10-19T06:23:27.806Z,43.20
2018-10-19T06:25:55.146Z,45.40
2018-10-19T06:28:22.334Z,52.00
2018-10-19T06:30:49.608Z,52.03
2018-10-19T06:33:16.870Z,56.50
2018-10-19T06:35:44.112Z,58.10
2018-10-19T06:38:11.384Z,78.70
2018-10-19T06:40:38.601Z,91.40
2018-10-19T06:43:05.845Z,128.05
2018-10-19T06:45:33.110Z,115.13
2018-10-19T06:48:00.402Z,96.67
2018-10-19T06:50:27.644Z,87.53
2018-10-19T06:52:54.865Z,80.77
2018-10-19T06:55:22.133Z,75.08
2018-10-19T06:57:49.405Z,65.37
2018-10-19T07:00:16.952Z,54.80
2018-10-19T07:02:44.190Z,53.50
2018-10-19T07:05:11.545Z,55.33
2018-10-19T07:07:38.764Z,56.10
2018-10-19T07:10:07.087Z,62.67
2018-10-19T07:12:34.425Z,55.43
2018-10-19T07:15:01.745Z,58.43
2018-10-19T07:17:29.253Z,53.28
2018-10-19T07:19:56.617Z,51.63
2018-10-19T07:22:23.905Z,53.93
2018-10-19T07:24:51.452Z,45.80
2018-10-19T07:27:18.773Z,49.87
2018-10-19T07:29:46.069Z,48.30
2018-10-19T07:32:13.470Z,48.27
2018-10-19T07:34:40.665Z,46.40
2018-10-19T07:37:08.407Z,40.67
2018-10-19T07:39:35.713Z,36.50
2018-10-19T07:42:03.088Z,43.90
2018-10-19T07:44:30.333Z,44.27
2018-10-19T07:46:57.662Z,39.57
2018-10-19T07:49:24.940Z,42.50
2018-10-19T07:51:52.237Z,42.90
2018-10-19T07:54:19.568Z,38.60
2018-10-19T07:56:46.893Z,39.40
2018-10-19T07:59:14.259Z,42.13
2018-10-19T08:01:41.489Z,41.90
2018-10-19T08:04:08.764Z,40.40
2018-10-19T08:06:36.082Z,41.43
2018-10-19T08:09:06.870Z,43.60
2018-10-19T08:11:34.255Z,45.40
2018-10-19T08:14:01.469Z,43.80
2018-10-19T08:16:28.765Z,50.77
2018-10-19T08:18:56.041Z,45.80
2018-10-19T08:21:23.368Z,49.43
2018-10-19T08:23:50.644Z,53.33
2018-10-19T08:26:18.023Z,53.73
2018-10-19T08:28:45.269Z,58.20
2018-10-19T08:31:12.544Z,54.10
2018-10-19T08:33:39.849Z,56.20
2018-10-19T08:36:07.168Z,52.80
2018-10-19T08:38:34.472Z,48.20
2018-10-19T08:41:01.783Z,51.87
2018-10-19T08:43:29.093Z,46.23
2018-10-19T08:46:00.975Z,49.83
2018-10-19T08:48:28.291Z,46.43
2018-10-19T08:50:55.625Z,49.23
2018-10-19T08:53:22.921Z,45.80
2018-10-19T08:55:50.212Z,48.70
2018-10-19T08:58:17.550Z,48.70
2018-10-19T09:00:44.796Z,46.47
2018-10-19T09:03:12.213Z,46.60
2018-10-19T09:05:39.430Z,46.67
2018-10-19T09:08:06.725Z,46.60
2018-10-19T09:10:34.020Z,43.00
2018-10-19T09:13:01.350Z,45.53
2018-10-19T09:15:28.617Z,45.07
2018-10-19T09:17:55.917Z,39.50
2018-10-19T09:20:23.196Z,41.37
2018-10-19T09:22:50.488Z,39.13
2018-10-19T09:25:17.788Z,40.17
2018-10-19T09:27:45.115Z,36.80
2018-10-19T09:30:12.434Z,38.07
2018-10-19T09:32:39.724Z,38.07
2018-10-19T09:35:07.113Z,44.17
2018-10-19T09:37:34.356Z,40.60
2018-10-19T09:40:01.734Z,35.13
2018-10-19T09:42:29.002Z,41.30
2018-10-19T09:44:56.310Z,35.90
2018-10-19T09:47:23.676Z,32.83
2018-10-19T09:49:50.981Z,36.27
2018-10-19T09:52:18.280Z,38.07
2018-10-19T09:54:45.568Z,32.23
2018-10-19T09:57:13.025Z,36.40
2018-10-19T09:59:40.218Z,31.70
2018-10-19T10:02:07.621Z,33.07
2018-10-19T10:04:34.960Z,32.97
2018-10-19T10:07:02.283Z,36.37
2018-10-19T10:09:29.561Z,36.50
2018-10-19T10:11:56.793Z,38.20
2018-10-19T10:14:24.037Z,36.20
2018-10-19T10:16:51.260Z,45.07
2018-10-19T10:19:18.481Z,46.23
2018-10-19T10:21:45.730Z,41.60
2018-10-19T10:24:12.973Z,43.17
2018-10-19T10:26:40.217Z,55.57
2018-10-19T10:29:07.493Z,44.10
2018-10-19T10:31:34.963Z,45.67
2018-10-19T10:34:02.265Z,51.13
2018-10-19T10:36:29.428Z,51.93
2018-10-19T10:38:56.801Z,57.63
2018-10-19T10:41:23.937Z,46.40
2018-10-19T10:43:51.283Z,46.10
2018-10-19T10:46:18.509Z,46.37
2018-10-19T10:48:45.730Z,44.40
2018-10-19T10:51:12.949Z,44.17
2018-10-19T10:53:40.170Z,55.20
2018-10-19T10:56:07.397Z,49.30
2018-10-19T10:58:34.640Z,50.83
2018-10-19T11:01:01.875Z,48.13
2018-10-19T11:03:29.184Z,53.57
2018-10-19T11:05:56.418Z,47.20
2018-10-19T11:08:23.641Z,56.73
2018-10-19T11:10:51.040Z,48.30
2018-10-19T11:13:18.315Z,45.87
2018-10-19T11:15:45.602Z,45.67
2018-10-19T11:18:12.985Z,45.70
2018-10-19T11:20:40.264Z,47.30
2018-10-19T11:23:07.538Z,46.97
2018-10-19T11:25:34.836Z,49.27
2018-10-19T11:28:02.177Z,46.10
2018-10-19T11:30:29.436Z,55.17
2018-10-19T11:32:56.734Z,43.73
2018-10-19T11:35:24.064Z,52.03
2018-10-19T11:37:51.395Z,45.53
2018-10-19T11:40:23.551Z,48.83
2018-10-19T11:42:51.336Z,50.03
2018-10-19T11:45:18.674Z,43.50
2018-10-19T11:47:46.027Z,44.10
2018-10-19T11:50:13.325Z,46.80
2018-10-19T11:52:40.613Z,43.70
2018-10-19T11:55:08.114Z,44.60
2018-10-19T11:57:35.473Z,42.23
2018-10-19T12:00:02.808Z,48.47
2018-10-19T12:02:30.130Z,46.77
2018-10-19T12:04:57.397Z,56.90
2018-10-19T12:07:24.674Z,46.77
2018-10-19T12:09:52.004Z,45.30
2018-10-19T12:12:19.360Z,45.60
2018-10-19T12:14:46.636Z,45.07
2018-10-19T12:17:13.921Z,47.57
2018-10-19T12:19:41.221Z,41.57
2018-10-19T12:22:08.501Z,41.47
2018-10-19T12:24:35.780Z,45.30
2018-10-19T12:27:03.151Z,39.90
2018-10-19T12:29:30.393Z,43.40
2018-10-19T12:31:57.693Z,46.37
2018-10-19T12:34:24.995Z,52.53
2018-10-19T12:36:52.263Z,44.63
2018-10-19T12:39:20.201Z,48.23
2018-10-19T12:41:47.480Z,50.73
2018-10-19T12:44:14.821Z,53.87
2018-10-19T12:46:53.704Z,55.70
2018-10-19T12:49:22.296Z,50.83
2018-10-19T12:51:49.633Z,54.70
2018-10-19T12:54:17.252Z,49.47
2018-10-19T12:56:44.517Z,51.23
2018-10-19T12:59:11.826Z,57.73
2018-10-19T13:01:39.125Z,58.20
2018-10-19T13:04:06.436Z,51.87
2018-10-19T13:06:33.802Z,50.27
2018-10-19T13:09:01.232Z,47.17
2018-10-19T13:11:28.641Z,49.50
2018-10-19T13:13:55.964Z,51.60
2018-10-19T13:16:23.374Z,50.67
2018-10-19T13:18:50.893Z,62.00
2018-10-19T13:21:18.182Z,55.37
2018-10-19T13:23:45.531Z,49.50
2018-10-19T13:26:12.800Z,58.03
2018-10-19T13:28:40.082Z,52.53
2018-10-19T13:31:07.364Z,51.30
2018-10-19T13:33:34.637Z,57.87
2018-10-19T13:36:02.077Z,54.57
2018-10-19T13:38:29.374Z,49.47
2018-10-19T13:40:56.693Z,54.50
2018-10-19T13:43:24.496Z,51.40
2018-10-19T13:45:52.254Z,46.90
2018-10-19T13:48:20.130Z,61.83
2018-10-19T13:50:47.486Z,57.87
2018-10-19T13:53:15.049Z,49.93
2018-10-19T13:55:42.453Z,44.47
2018-10-19T13:58:09.752Z,48.43
2018-10-19T14:00:37.043Z,46.67
2018-10-19T14:03:04.473Z,47.00
2018-10-19T14:05:31.873Z,51.90
2018-10-19T14:07:59.184Z,46.80
2018-10-19T14:10:26.556Z,47.73
2018-10-19T14:12:53.825Z,45.23
2018-10-19T14:15:21.105Z,48.53
2018-10-19T14:17:48.477Z,50.50
2018-10-19T14:20:15.853Z,46.50
2018-10-19T14:22:43.137Z,46.17
2018-10-19T14:25:11.620Z,50.27
2018-10-19T14:27:39.973Z,47.83
2018-10-19T14:30:09.473Z,52.10
2018-10-19T14:32:38.476Z,44.90
2018-10-19T14:35:05.946Z,42.00
2018-10-19T14:37:33.288Z,48.60
2018-10-19T14:40:00.577Z,44.37
2018-10-19T14:42:27.863Z,46.43
2018-10-19T14:44:55.201Z,58.60
2018-10-19T14:47:22.560Z,43.50
2018-10-19T14:49:49.885Z,39.97
2018-10-19T14:52:17.253Z,44.93
2018-10-19T14:54:44.600Z,46.10
2018-10-19T14:57:11.882Z,49.20
2018-10-19T14:59:39.256Z,51.40
2018-10-19T15:02:06.617Z,42.67
2018-10-19T15:04:33.949Z,46.93
2018-10-19T15:07:01.345Z,47.63
2018-10-19T15:09:28.675Z,52.10
2018-10-19T15:11:55.990Z,53.27
2018-10-19T15:14:23.280Z,49.07
2018-10-19T15:16:50.529Z,41.37
2018-10-19T15:19:17.749Z,52.03
2018-10-19T15:21:44.976Z,44.70
2018-10-19T15:24:12.321Z,43.80
2018-10-19T15:26:39.480Z,44.23
2018-10-19T15:29:06.806Z,48.50
2018-10-19T15:31:34.005Z,42.90
2018-10-19T15:34:01.237Z,45.77
2018-10-19T15:36:28.504Z,45.50
2018-10-19T15:38:55.747Z,44.93
2018-10-19T15:41:22.981Z,42.43
2018-10-19T15:43:50.261Z,46.83
2018-10-19T15:46:17.500Z,48.83
2018-10-19T15:48:44.749Z,42.67
2018-10-19T15:51:12.107Z,44.43
2018-10-19T15:53:39.286Z,45.03
2018-10-19T15:56:06.580Z,51.53
2018-10-19T15:58:33.816Z,43.70
2018-10-19T16:01:01.046Z,41.43
2018-10-19T16:03:28.287Z,43.83
2018-10-19T16:05:55.522Z,41.13
2018-10-19T16:08:23.170Z,44.50
2018-10-19T16:10:50.412Z,41.20
2018-10-19T16:13:17.800Z,44.37
2018-10-19T16:15:45.041Z,46.87
2018-10-19T16:18:12.592Z,46.77
2018-10-19T16:20:39.808Z,43.03
2018-10-19T16:23:07.084Z,47.93
2018-10-19T16:25:34.318Z,60.13
2018-10-19T16:28:01.529Z,45.60
2018-10-19T16:30:28.768Z,45.93
2018-10-19T16:32:56.028Z,40.70
2018-10-19T16:35:23.216Z,49.43
2018-10-19T16:37:50.424Z,47.17
2018-10-19T16:40:17.662Z,52.20
2018-10-19T16:42:44.914Z,53.33
2018-10-19T16:45:12.208Z,53.27
2018-10-19T16:47:39.399Z,62.10
2018-10-19T16:50:06.619Z,78.17
2018-10-19T16:52:33.984Z,89.70
2018-10-19T16:55:01.156Z,74.43
2018-10-19T16:57:28.387Z,62.27
2018-10-19T16:59:55.643Z,58.37
2018-10-19T17:02:23.022Z,58.10
2018-10-19T17:04:50.398Z,49.90
2018-10-19T17:07:17.628Z,50.67
2018-10-19T17:09:45.072Z,54.13
2018-10-19T17:12:12.369Z,61.00
2018-10-19T17:14:39.616Z,51.00
2018-10-19T17:17:06.933Z,52.30
2018-10-19T17:19:34.185Z,50.90
2018-10-19T17:22:01.493Z,51.20
2018-10-19T17:24:28.771Z,52.17
2018-10-19T17:26:56.010Z,46.77
2018-10-19T17:29:23.252Z,48.43
2018-10-19T17:31:50.476Z,47.20
2018-10-19T17:34:17.829Z,46.97
2018-10-19T17:36:45.109Z,56.60
2018-10-19T17:39:12.464Z,62.10
2018-10-19T17:41:39.639Z,64.57
2018-10-19T17:44:07.113Z,67.37
2018-10-19T17:46:34.430Z,62.80
2018-10-19T17:49:01.822Z,71.07
2018-10-19T17:51:29.128Z,71.83
2018-10-19T17:53:56.423Z,79.97
2018-10-19T17:56:23.724Z,65.10
2018-10-19T17:58:50.980Z,70.23
2018-10-19T18:01:18.540Z,63.40
2018-10-19T18:03:45.756Z,66.10
2018-10-19T18:06:13.064Z,57.63
2018-10-19T18:08:40.282Z,64.90
2018-10-19T18:11:07.616Z,62.77
2018-10-19T18:13:35.008Z,67.93
2018-10-19T18:16:02.437Z,82.27
2018-10-19T18:18:29.891Z,78.43
2018-10-19T18:20:57.277Z,77.80
2018-10-19T18:23:24.793Z,72.60
2018-10-19T18:25:51.709Z,69.57
2018-10-19T18:28:18.948Z,60.83
2018-10-19T18:30:46.228Z,59.77
2018-10-19T18:33:13.541Z,64.73
2018-10-19T18:35:40.769Z,67.37
2018-10-19T18:38:08.198Z,58.13
2018-10-19T18:40:35.508Z,57.67
2018-10-19T18:43:02.764Z,66.00
2018-10-19T18:45:30.015Z,72.70
2018-10-19T18:47:57.256Z,57.07
2018-10-19T18:50:24.545Z,63.03
2018-10-19T18:52:51.841Z,54.63
2018-10-19T18:55:19.175Z,51.27
2018-10-19T18:57:46.460Z,57.17
2018-10-19T19:00:13.720Z,71.60
2018-10-19T19:02:40.957Z,56.10
2018-10-19T19:05:08.217Z,58.13
2018-10-19T19:07:35.465Z,56.17
2018-10-19T19:10:08.277Z,53.80
2018-10-19T19:12:35.529Z,56.70
2018-10-19T19:15:02.796Z,60.13
2018-10-19T19:17:30.020Z,72.40
2018-10-19T19:20:03.134Z,109.73
2018-10-19T19:22:30.329Z,146.40
2018-10-19T19:25:03.437Z,75.80
2018-10-19T19:27:30.741Z,66.77
2018-10-19T19:29:58.036Z,81.47
2018-10-19T19:32:25.272Z,64.30
2018-10-19T19:34:52.514Z,71.90
2018-10-19T19:37:19.825Z,68.77
2018-10-19T19:39:47.345Z,66.30
2018-10-19T19:42:20.508Z,75.43
2018-10-19T19:44:48.660Z,63.93
2018-10-19T19:47:21.559Z,63.87
2018-10-19T19:49:48.880Z,55.53
2018-10-19T19:52:18.531Z,75.13
2018-10-19T19:54:45.772Z,65.60
2018-10-19T19:57:13.025Z,53.20
2018-10-19T19:59:40.249Z,57.40
2018-10-19T20:02:07.780Z,54.97
2018-10-19T20:04:35.460Z,45.20
2018-10-19T20:07:02.851Z,49.40
2018-10-19T20:09:30.224Z,48.27
2018-10-19T20:11:58.128Z,53.10
2018-10-19T20:14:26.161Z,51.60
2018-10-19T20:16:53.860Z,50.43
2018-10-19T20:19:21.701Z,61.27
2018-10-19T20:21:52.913Z,89.97
2018-10-19T20:24:20.665Z,67.73
2018-10-19T20:26:48.924Z,60.27
2018-10-19T20:29:16.680Z,51.47
2018-10-19T20:31:44.909Z,52.63
2018-10-19T20:34:12.636Z,57.87
2018-10-19T20:36:40.280Z,53.40
2018-10-19T20:39:08.824Z,57.67
2018-10-19T20:41:36.098Z,53.03
2018-10-19T20:44:03.436Z,60.13
2018-10-19T20:46:30.725Z,129.43
2018-10-19T20:48:58.060Z,110.87
2018-10-19T20:51:25.521Z,85.33
2018-10-19T20:53:52.800Z,89.80
2018-10-19T20:56:20.537Z,101.27
2018-10-19T20:58:48.108Z,80.13
2018-10-19T21:01:15.724Z,95.20
2018-10-19T21:03:43.060Z,106.40
2018-10-19T21:06:10.420Z,69.50
2018-10-19T21:08:37.730Z,66.60
2018-10-19T21:11:05.321Z,60.90
2018-10-19T21:13:32.765Z,55.27
2018-10-19T21:16:00.979Z,67.03
2018-10-19T21:18:28.256Z,61.60
2018-10-19T21:20:55.500Z,55.47
2018-10-19T21:23:22.700Z,49.93
2018-10-19T21:25:49.953Z,52.80
2018-10-19T21:28:17.169Z,48.50
2018-10-19T21:34:08.917Z,52.13
2018-10-19T21:36:36.941Z,46.60
2018-10-19T21:39:07.310Z,52.80
2018-10-19T21:41:35.367Z,51.00
2018-10-19T21:44:03.429Z,72.67
2018-10-19T21:46:31.715Z,69.73
2018-10-19T21:48:59.970Z,76.07
2018-10-19T21:51:28.108Z,57.70
2018-10-19T21:53:55.772Z,57.83
2018-10-19T21:56:24.197Z,50.23
2018-10-19T21:58:52.703Z,59.57
2018-10-19T22:01:20.948Z,47.23
2018-10-19T22:03:48.242Z,48.57
2018-10-19T22:06:15.526Z,46.83
2018-10-19T22:08:43.011Z,55.53
2018-10-19T22:11:10.426Z,53.30
2018-10-19T22:13:37.613Z,49.10
2018-10-19T22:16:05.080Z,54.47
2018-10-19T22:18:32.305Z,52.90
2018-10-19T22:20:59.575Z,51.23
2018-10-19T22:23:26.871Z,51.30
2018-10-19T22:25:54.183Z,72.47
2018-10-19T22:28:21.420Z,56.20
2018-10-19T22:30:48.663Z,49.73
2018-10-19T22:33:15.902Z,69.77
2018-10-19T22:35:43.120Z,50.50
2018-10-19T22:38:10.367Z,70.50
2018-10-19T22:40:37.593Z,66.20
2018-10-19T22:43:04.926Z,74.73
2018-10-19T22:45:32.181Z,52.10
2018-10-19T22:47:59.513Z,48.23
2018-10-19T22:50:26.729Z,51.90
2018-10-19T22:52:53.969Z,54.30
2018-10-19T22:55:21.193Z,50.97
2018-10-19T22:57:48.461Z,57.13
2018-10-19T23:00:15.749Z,59.73
2018-10-19T23:02:43.137Z,60.77
2018-10-19T23:05:10.463Z,59.93
2018-10-19T23:07:37.695Z,62.23
2018-10-19T23:10:06.138Z,49.17
2018-10-19T23:12:33.512Z,50.27
2018-10-19T23:15:00.746Z,51.73
2018-10-19T23:17:27.960Z,51.13
2018-10-19T23:19:55.192Z,49.57
2018-10-19T23:22:22.425Z,52.63
2018-10-19T23:24:49.713Z,46.57
2018-10-19T23:27:16.925Z,50.20
2018-10-19T23:29:44.205Z,56.10
2018-10-19T23:32:11.604Z,52.63
2018-10-19T23:34:38.869Z,56.67
2018-10-19T23:37:06.412Z,54.30
2018-10-19T23:39:33.962Z,47.80
2018-10-19T23:42:01.464Z,50.30
2018-10-19T23:44:28.952Z,52.10
2018-10-19T23:46:56.872Z,53.47
2018-10-19T23:49:24.419Z,54.70
2018-10-19T23:51:54.031Z,53.47
2018-10-19T23:54:21.402Z,54.13
2018-10-19T23:56:53.065Z,48.50
2018-10-19T23:59:20.728Z,56.60
